createdAt,value
2018-03-24T00:00:32.143Z,9.27
2018-03-24T00:02:58.439Z,8.00
2018-03-24T00:05:24.778Z,8.85
2018-03-24T00:07:51.034Z,7.47
2018-03-24T00:10:17.370Z,7.95
2018-03-24T00:12:43.631Z,8.38
2018-03-24T00:15:09.868Z,7.93
2018-03-24T00:17:36.132Z,8.35
2018-03-24T00:20:02.385Z,8.45
2018-03-24T00:22:29.268Z,7.65
2018-03-24T00:24:56.226Z,7.97
2018-03-24T00:27:22.529Z,8.68
2018-03-24T00:29:49.541Z,9.13
2018-03-24T00:32:15.811Z,9.38
2018-03-24T00:34:42.076Z,8.00
2018-03-24T00:37:08.339Z,8.07
2018-03-24T00:39:34.625Z,8.80
2018-03-24T00:42:00.888Z,9.23
2018-03-24T00:44:27.183Z,9.00
2018-03-24T00:46:54.203Z,10.88
2018-03-24T00:49:20.469Z,9.32
2018-03-24T00:51:48.296Z,8.20
2018-03-24T00:54:14.553Z,8.95
2018-03-24T00:56:40.837Z,9.52
2018-03-24T00:59:07.842Z,9.30
2018-03-24T01:01:34.107Z,15.30
2018-03-24T01:04:01.174Z,9.70
2018-03-24T01:06:27.464Z,10.70
2018-03-24T01:08:53.977Z,10.80
2018-03-24T01:11:20.274Z,11.10
2018-03-24T01:13:46.526Z,10.32
2018-03-24T01:16:12.764Z,10.73
2018-03-24T01:18:39.029Z,11.57
2018-03-24T01:21:05.280Z,12.75
2018-03-24T01:23:31.598Z,11.38
2018-03-24T01:25:58.571Z,10.88
2018-03-24T01:28:24.831Z,12.15
2018-03-24T01:30:51.612Z,11.80
2018-03-24T01:33:17.867Z,12.52
2018-03-24T01:35:44.117Z,12.37
2018-03-24T01:38:11.133Z,11.35
2018-03-24T01:40:38.106Z,11.18
2018-03-24T01:43:04.374Z,11.15
2018-03-24T01:45:30.598Z,11.45
2018-03-24T01:47:56.801Z,11.52
2018-03-24T01:50:23.013Z,12.02
2018-03-24T01:52:49.204Z,11.12
2018-03-24T01:55:15.423Z,11.15
2018-03-24T01:57:41.615Z,12.20
2018-03-24T02:00:07.818Z,11.73
2018-03-24T02:02:34.756Z,12.57
2018-03-24T02:05:00.943Z,12.05
2018-03-24T02:07:27.270Z,12.27
2018-03-24T02:09:53.657Z,13.02
2018-03-24T02:12:20.774Z,12.15
2018-03-24T02:14:46.981Z,12.80
2018-03-24T02:17:13.209Z,13.23
2018-03-24T02:19:40.212Z,14.48
2018-03-24T02:22:06.436Z,14.05
2018-03-24T02:24:32.688Z,13.20
2018-03-24T02:26:58.941Z,13.27
2018-03-24T02:29:25.205Z,14.95
2018-03-24T02:31:51.528Z,13.85
2018-03-24T02:34:17.690Z,16.92
2018-03-24T02:36:43.949Z,15.30
2018-03-24T02:39:10.216Z,14.50
2018-03-24T02:41:37.183Z,12.90
2018-03-24T02:44:03.420Z,13.88
2018-03-24T02:46:30.364Z,14.48
2018-03-24T02:48:57.330Z,12.85
2018-03-24T02:51:24.333Z,14.20
2018-03-24T02:53:50.554Z,12.63
2018-03-24T02:56:16.763Z,13.95
2018-03-24T02:58:43.717Z,12.40
2018-03-24T03:01:09.922Z,14.60
2018-03-24T03:03:36.133Z,14.52
2018-03-24T03:06:02.380Z,14.65
2018-03-24T03:08:28.725Z,14.48
2018-03-24T03:10:55.120Z,14.75
2018-03-24T03:13:21.572Z,15.60
2018-03-24T03:15:47.811Z,13.23
2018-03-24T03:18:14.105Z,13.57
2018-03-24T03:20:40.354Z,14.45
2018-03-24T03:23:06.565Z,13.60
2018-03-24T03:25:32.775Z,16.25
2018-03-24T03:27:59.839Z,13.88
2018-03-24T03:30:29.085Z,13.65
2018-03-24T03:32:56.128Z,13.10
2018-03-24T03:35:22.481Z,15.00
2018-03-24T03:37:48.805Z,15.38
2018-03-24T03:40:15.060Z,14.50
2018-03-24T03:42:41.354Z,15.15
2018-03-24T03:45:07.618Z,14.60
2018-03-24T03:47:34.697Z,15.77
2018-03-24T03:50:00.971Z,15.30
2018-03-24T03:52:27.341Z,16.55
2018-03-24T03:54:53.620Z,15.27
2018-03-24T03:57:20.596Z,14.98
2018-03-24T03:59:46.874Z,14.77
2018-03-24T04:02:13.229Z,15.02
2018-03-24T04:04:40.233Z,15.25
2018-03-24T04:07:07.184Z,16.30
2018-03-24T04:09:33.430Z,15.73
2018-03-24T04:11:59.673Z,16.25
2018-03-24T04:14:25.915Z,15.05
2018-03-24T04:16:52.181Z,16.42
2018-03-24T04:19:18.543Z,16.75
2018-03-24T04:21:44.840Z,16.17
2018-03-24T04:24:11.062Z,15.35
2018-03-24T04:26:38.108Z,16.95
2018-03-24T04:29:04.402Z,15.57
2018-03-24T04:31:30.660Z,16.02
2018-03-24T04:33:56.941Z,17.12
2018-03-24T04:36:23.304Z,16.25
2018-03-24T04:38:49.714Z,17.12
2018-03-24T04:41:16.727Z,16.75
2018-03-24T04:43:42.996Z,17.25
2018-03-24T04:46:10.011Z,19.95
2018-03-24T04:48:36.266Z,18.27
2018-03-24T04:51:02.518Z,18.17
2018-03-24T04:53:28.817Z,18.40
2018-03-24T04:55:55.082Z,17.60
2018-03-24T04:58:21.367Z,17.87
2018-03-24T05:00:47.613Z,18.37
2018-03-24T05:03:13.857Z,18.98
2018-03-24T05:05:40.085Z,21.02
2018-03-24T05:08:06.338Z,17.92
2018-03-24T05:10:33.341Z,18.90
2018-03-24T05:12:59.608Z,18.85
2018-03-24T05:15:25.857Z,18.62
2018-03-24T05:17:52.118Z,20.25
2018-03-24T05:20:19.155Z,21.10
2018-03-24T05:22:46.177Z,20.55
2018-03-24T05:25:12.444Z,19.85
2018-03-24T05:27:39.490Z,20.10
2018-03-24T05:30:06.513Z,19.48
2018-03-24T05:32:32.785Z,20.73
2018-03-24T05:34:59.753Z,19.08
2018-03-24T05:37:26.746Z,19.45
2018-03-24T05:39:53.009Z,18.45
2018-03-24T05:42:19.374Z,19.05
2018-03-24T05:44:45.644Z,17.45
2018-03-24T05:47:11.941Z,18.85
2018-03-24T05:49:38.942Z,18.08
2018-03-24T05:52:05.205Z,16.58
2018-03-24T05:54:31.505Z,18.48
2018-03-24T05:56:57.762Z,17.95
2018-03-24T05:59:24.018Z,17.40
2018-03-24T06:01:50.297Z,18.05
2018-03-24T06:04:17.280Z,18.52
2018-03-24T06:06:44.402Z,17.37
2018-03-24T06:09:11.422Z,15.68
2018-03-24T06:11:37.677Z,18.52
2018-03-24T06:14:03.909Z,16.92
2018-03-24T06:16:30.155Z,16.27
2018-03-24T06:18:56.419Z,17.40
2018-03-24T06:21:23.486Z,17.35
2018-03-24T06:23:49.823Z,17.98
2018-03-24T06:26:16.098Z,16.10
2018-03-24T06:28:43.087Z,15.23
2018-03-24T06:34:11.934Z,15.48
2018-03-24T06:36:39.760Z,14.60
2018-03-24T06:39:06.566Z,14.20
2018-03-24T06:41:32.650Z,14.73
2018-03-24T06:43:59.461Z,13.52
2018-03-24T06:46:25.549Z,14.82
2018-03-24T06:48:51.634Z,16.20
2018-03-24T06:51:17.698Z,13.07
2018-03-24T06:53:44.771Z,12.68
2018-03-24T06:56:11.682Z,13.62
2018-03-24T06:58:37.749Z,14.77
2018-03-24T07:01:04.673Z,15.60
2018-03-24T07:03:30.741Z,14.85
2018-03-24T07:05:56.802Z,14.43
2018-03-24T07:08:22.894Z,15.15
2018-03-24T07:10:48.973Z,14.93
2018-03-24T07:13:15.065Z,14.48
2018-03-24T07:15:41.133Z,13.05
2018-03-24T07:18:07.968Z,13.65
2018-03-24T07:20:34.050Z,14.15
2018-03-24T07:23:00.120Z,14.43
2018-03-24T07:25:26.188Z,14.55
2018-03-24T07:27:52.974Z,13.73
2018-03-24T07:30:19.111Z,12.82
2018-03-24T07:32:45.144Z,13.30
2018-03-24T07:35:11.185Z,13.40
2018-03-24T07:37:37.233Z,12.77
2018-03-24T07:40:03.418Z,13.43
2018-03-24T07:42:29.635Z,12.47
2018-03-24T07:44:55.702Z,13.33
2018-03-24T07:47:22.497Z,13.20
2018-03-24T07:49:48.528Z,12.50
2018-03-24T07:52:14.561Z,13.00
2018-03-24T07:54:40.579Z,13.63
2018-03-24T07:57:07.389Z,13.50
2018-03-24T07:59:33.437Z,14.63
2018-03-24T08:01:59.467Z,13.33
2018-03-24T08:04:25.519Z,13.70
2018-03-24T08:06:52.328Z,13.73
2018-03-24T08:09:18.372Z,13.17
2018-03-24T08:11:44.408Z,13.83
2018-03-24T08:14:10.433Z,13.80
2018-03-24T08:16:36.458Z,13.13
2018-03-24T08:19:02.548Z,12.87
2018-03-24T08:21:28.571Z,13.10
2018-03-24T08:23:55.429Z,13.30
2018-03-24T08:26:21.489Z,12.43
2018-03-24T08:28:48.257Z,14.23
2018-03-24T08:31:15.020Z,13.00
2018-03-24T08:33:41.121Z,13.17
2018-03-24T08:36:07.132Z,14.20
2018-03-24T08:38:33.153Z,12.67
2018-03-24T08:40:59.181Z,13.00
2018-03-24T08:43:25.232Z,14.00
2018-03-24T08:45:51.636Z,13.60
2018-03-24T08:48:24.637Z,12.70
2018-03-24T08:50:52.055Z,13.20
2018-03-24T08:53:18.084Z,13.23
2018-03-24T08:55:44.153Z,14.00
2018-03-24T08:58:10.793Z,13.17
2018-03-24T09:00:36.830Z,13.17
2018-03-24T09:03:02.878Z,12.27
2018-03-24T09:05:28.902Z,13.30
2018-03-24T09:07:55.020Z,11.10
2018-03-24T09:10:21.114Z,12.67
2018-03-24T09:12:47.153Z,11.60
2018-03-24T09:15:13.176Z,11.27
2018-03-24T09:17:39.941Z,10.60
2018-03-24T09:20:05.965Z,12.47
2018-03-24T09:22:32.785Z,11.00
2018-03-24T09:24:58.808Z,11.30
2018-03-24T09:27:24.843Z,10.50
2018-03-24T09:29:50.861Z,11.77
2018-03-24T09:32:16.901Z,11.17
2018-03-24T09:34:43.019Z,11.90
2018-03-24T09:37:09.057Z,12.80
2018-03-24T09:39:35.105Z,11.43
2018-03-24T09:42:01.182Z,9.50
2018-03-24T09:44:27.365Z,10.03
2018-03-24T09:46:53.561Z,10.33
2018-03-24T09:49:19.687Z,10.20
2018-03-24T09:51:45.749Z,10.30
2018-03-24T09:54:11.782Z,10.10
2018-03-24T09:56:37.810Z,9.90
2018-03-24T09:59:04.008Z,10.77
2018-03-24T10:01:30.983Z,11.90
2018-03-24T10:03:57.293Z,13.47
2018-03-24T10:06:23.574Z,11.00
2018-03-24T10:08:49.921Z,11.90
2018-03-24T10:11:16.143Z,12.47
2018-03-24T10:13:42.360Z,10.43
2018-03-24T10:16:09.361Z,10.80
2018-03-24T10:18:35.575Z,9.50
2018-03-24T10:24:31.340Z,10.37
2018-03-24T10:26:58.355Z,11.37
2018-03-24T10:29:24.616Z,10.17
2018-03-24T10:31:51.616Z,10.20
2018-03-24T10:34:17.857Z,9.70
2018-03-24T10:36:44.144Z,10.17
2018-03-24T10:39:11.113Z,10.13
2018-03-24T10:41:38.085Z,10.23
2018-03-24T10:44:04.323Z,9.20
2018-03-24T10:46:30.637Z,10.63
2018-03-24T10:48:56.886Z,9.97
2018-03-24T10:51:23.101Z,10.43
2018-03-24T10:53:49.356Z,9.80
2018-03-24T10:56:15.562Z,9.77
2018-03-24T10:58:41.794Z,10.17
2018-03-24T11:01:12.966Z,10.77
2018-03-24T11:03:39.191Z,9.80
2018-03-24T11:06:05.528Z,9.90
2018-03-24T11:08:31.790Z,8.90
2018-03-24T11:10:58.007Z,8.73
2018-03-24T11:13:24.825Z,9.70
2018-03-24T11:15:51.068Z,9.47
2018-03-24T11:18:17.313Z,8.70
2018-03-24T11:20:43.552Z,8.77
2018-03-24T11:23:10.039Z,8.57
2018-03-24T11:25:37.282Z,7.73
2018-03-24T11:28:04.225Z,7.77
2018-03-24T11:30:30.457Z,7.93
2018-03-24T11:32:57.447Z,7.70
2018-03-24T11:35:23.725Z,8.63
2018-03-24T11:37:49.949Z,7.60
2018-03-24T11:40:16.185Z,7.10
2018-03-24T11:42:42.459Z,6.60
2018-03-24T11:45:09.456Z,5.60
2018-03-24T11:47:35.706Z,6.03
2018-03-24T11:50:02.000Z,5.87
2018-03-24T11:52:28.224Z,6.70
2018-03-24T11:54:54.490Z,5.43
2018-03-24T11:57:20.747Z,5.67
2018-03-24T11:59:47.715Z,6.50
2018-03-24T12:02:14.025Z,6.10
2018-03-24T12:04:40.449Z,5.77
2018-03-24T12:07:06.709Z,6.03
2018-03-24T12:09:33.669Z,6.10
2018-03-24T12:11:59.902Z,5.80
2018-03-24T12:14:26.175Z,5.60
2018-03-24T12:16:53.260Z,6.63
2018-03-24T12:19:19.484Z,6.30
2018-03-24T12:21:45.804Z,6.10
2018-03-24T12:24:12.846Z,5.53
2018-03-24T12:26:39.841Z,6.10
2018-03-24T12:29:06.837Z,5.53
2018-03-24T12:31:33.070Z,5.70
2018-03-24T12:33:59.428Z,5.00
2018-03-24T12:36:25.677Z,6.23
2018-03-24T12:38:52.739Z,6.17
2018-03-24T12:41:18.961Z,5.70
2018-03-24T12:43:45.248Z,5.50
2018-03-24T12:46:11.470Z,5.70
2018-03-24T12:51:10.784Z,5.60
2018-03-24T12:53:37.015Z,5.73
2018-03-24T12:56:03.239Z,5.77
2018-03-24T12:58:29.527Z,6.20
2018-03-24T13:00:55.930Z,5.47
2018-03-24T13:03:22.205Z,5.67
2018-03-24T13:05:48.421Z,6.57
2018-03-24T13:08:14.713Z,5.90
2018-03-24T13:10:40.941Z,6.60
2018-03-24T13:13:07.157Z,6.43
2018-03-24T13:15:33.452Z,5.70
2018-03-24T13:17:59.657Z,5.67
2018-03-24T13:20:25.922Z,5.00
2018-03-24T13:22:52.929Z,5.77
2018-03-24T13:25:19.163Z,6.23
2018-03-24T13:27:45.438Z,5.83
2018-03-24T13:30:11.744Z,5.20
2018-03-24T13:32:38.021Z,5.67
2018-03-24T13:35:04.261Z,5.00
2018-03-24T13:37:30.548Z,6.13
2018-03-24T13:39:57.557Z,6.07
2018-03-24T13:42:23.885Z,5.67
2018-03-24T13:44:50.153Z,5.70
2018-03-24T13:47:16.453Z,5.90
2018-03-24T13:49:42.781Z,6.60
2018-03-24T13:52:09.765Z,6.27
2018-03-24T13:54:36.026Z,5.93
2018-03-24T13:57:02.367Z,6.47
2018-03-24T13:59:29.385Z,6.40
2018-03-24T14:01:56.386Z,6.30
2018-03-24T14:04:22.661Z,6.77
2018-03-24T14:06:48.959Z,6.37
2018-03-24T14:09:15.302Z,6.43
2018-03-24T14:11:41.650Z,6.40
2018-03-24T14:14:07.920Z,6.87
2018-03-24T14:16:34.300Z,6.30
2018-03-24T14:19:01.294Z,7.00
2018-03-24T14:21:27.662Z,6.93
2018-03-24T14:23:54.039Z,6.47
2018-03-24T14:26:21.077Z,6.73
2018-03-24T14:28:47.304Z,7.23
2018-03-24T14:31:13.571Z,6.43
2018-03-24T14:33:39.859Z,6.43
2018-03-24T14:36:06.082Z,6.20
2018-03-24T14:38:32.297Z,6.83
2018-03-24T14:40:58.570Z,6.47
2018-03-24T14:43:24.857Z,5.90
2018-03-24T14:45:51.922Z,6.13
2018-03-24T14:48:18.132Z,7.00
2018-03-24T14:50:44.412Z,6.07
2018-03-24T14:53:10.673Z,6.00
2018-03-24T14:55:36.929Z,6.60
2018-03-24T14:58:03.150Z,7.20
2018-03-24T15:00:30.116Z,6.77
2018-03-24T15:02:56.440Z,6.97
2018-03-24T15:05:22.710Z,7.37
2018-03-24T15:07:48.993Z,7.03
2018-03-24T15:10:15.261Z,7.10
2018-03-24T15:12:42.238Z,7.30
2018-03-24T15:15:09.181Z,7.20
2018-03-24T15:17:35.399Z,7.00
2018-03-24T15:20:01.623Z,7.17
2018-03-24T15:22:27.841Z,7.60
2018-03-24T15:24:54.185Z,7.20
2018-03-24T15:27:20.435Z,7.93
2018-03-24T15:29:59.059Z,7.33
2018-03-24T15:32:35.381Z,7.40
2018-03-24T15:37:58.364Z,6.93
2018-03-24T15:40:24.626Z,7.90
2018-03-24T15:42:50.888Z,6.90
2018-03-24T15:45:17.914Z,7.10
2018-03-24T15:47:44.154Z,7.17
2018-03-24T15:50:10.385Z,7.33
2018-03-24T15:52:36.633Z,10.43
2018-03-24T15:55:02.957Z,7.97
2018-03-24T15:57:29.202Z,6.97
2018-03-24T15:59:55.554Z,7.70
2018-03-24T16:02:21.884Z,19.67
2018-03-24T16:04:48.137Z,7.37
2018-03-24T16:07:14.404Z,8.20
2018-03-24T16:09:40.715Z,7.70
2018-03-24T16:12:06.998Z,6.60
2018-03-24T16:14:33.328Z,7.73
2018-03-24T16:16:59.659Z,7.60
2018-03-24T16:19:25.873Z,8.03
2018-03-24T16:21:52.119Z,8.60
2018-03-24T16:24:18.359Z,7.67
2018-03-24T16:26:45.189Z,6.60
2018-03-24T16:29:11.426Z,7.90
2018-03-24T16:31:38.375Z,8.40
2018-03-24T16:34:05.333Z,7.00
2018-03-24T16:36:31.929Z,10.10
2018-03-24T16:38:58.234Z,9.50
2018-03-24T16:41:24.720Z,7.20
2018-03-24T16:43:50.949Z,8.33
2018-03-24T16:46:17.221Z,8.30
2018-03-24T16:48:43.446Z,8.73
2018-03-24T16:51:09.702Z,7.70
2018-03-24T16:53:35.945Z,8.73
2018-03-24T16:56:02.945Z,7.17
2018-03-24T16:58:28.986Z,7.87
2018-03-24T17:00:55.024Z,7.93
2018-03-24T17:03:21.336Z,9.93
2018-03-24T17:05:48.121Z,8.87
2018-03-24T17:08:14.174Z,8.37
2018-03-24T17:10:40.256Z,8.03
2018-03-24T17:13:07.027Z,8.50
2018-03-24T17:15:33.133Z,8.50
2018-03-24T17:17:59.234Z,8.83
2018-03-24T17:20:25.265Z,7.93
2018-03-24T17:22:51.338Z,9.47
2018-03-24T17:25:18.132Z,8.80
2018-03-24T17:27:44.220Z,9.47
2018-03-24T17:30:10.296Z,8.67
2018-03-24T17:32:37.126Z,8.23
2018-03-24T17:35:04.381Z,9.70
2018-03-24T17:37:30.472Z,8.50
2018-03-24T17:39:56.581Z,10.03
2018-03-24T17:42:22.684Z,8.80
2018-03-24T17:44:49.513Z,10.23
2018-03-24T17:47:15.632Z,8.67
2018-03-24T17:49:41.789Z,8.80
2018-03-24T17:52:07.836Z,8.27
2018-03-24T17:54:33.905Z,9.27
2018-03-24T17:57:04.754Z,9.10
2018-03-24T17:59:31.557Z,10.00
2018-03-24T18:01:57.793Z,10.57
2018-03-24T18:04:23.881Z,9.87
2018-03-24T18:06:50.430Z,11.70
2018-03-24T18:09:17.253Z,10.93
2018-03-24T18:11:43.450Z,10.43
2018-03-24T18:14:09.526Z,10.73
2018-03-24T18:16:35.588Z,13.40
2018-03-24T18:19:01.802Z,11.80
2018-03-24T18:21:27.967Z,12.90
2018-03-24T18:23:54.206Z,15.07
2018-03-24T18:26:25.121Z,12.60
2018-03-24T18:28:51.155Z,12.47
2018-03-24T18:31:17.201Z,14.27
2018-03-24T18:33:43.977Z,13.30
2018-03-24T18:36:10.045Z,13.17
2018-03-24T18:38:36.834Z,14.33
2018-03-24T18:41:02.876Z,14.10
2018-03-24T18:43:29.458Z,13.77
2018-03-24T18:45:55.690Z,16.13
2018-03-24T18:48:21.928Z,15.20
2018-03-24T18:50:48.217Z,14.27
2018-03-24T18:53:14.466Z,15.93
2018-03-24T18:55:41.457Z,15.57
2018-03-24T18:58:07.661Z,15.10
2018-03-24T19:00:33.906Z,16.17
2018-03-24T19:03:00.185Z,14.30
2018-03-24T19:05:26.463Z,14.83
2018-03-24T19:07:53.497Z,14.77
2018-03-24T19:10:20.554Z,15.90
2018-03-24T19:12:47.153Z,14.60
2018-03-24T19:15:13.433Z,15.03
2018-03-24T19:17:39.743Z,14.70
2018-03-24T19:20:06.090Z,14.07
2018-03-24T19:22:32.435Z,15.52
2018-03-24T19:24:58.770Z,14.60
2018-03-24T19:27:25.286Z,15.35
2018-03-24T19:29:51.549Z,15.70
2018-03-24T19:32:18.586Z,16.50
2018-03-24T19:34:45.845Z,16.57
2018-03-24T19:37:12.960Z,16.47
2018-03-24T19:39:39.227Z,15.40
2018-03-24T19:42:05.489Z,16.80
2018-03-24T19:44:31.770Z,15.70
2018-03-24T19:46:58.793Z,16.25
2018-03-24T19:49:25.045Z,15.90
2018-03-24T19:51:51.290Z,15.30
2018-03-24T19:54:18.304Z,17.12
2018-03-24T19:56:44.655Z,18.23
2018-03-24T19:59:10.954Z,16.05
2018-03-24T20:01:37.227Z,17.08
2018-03-24T20:04:03.514Z,15.55
2018-03-24T20:06:29.782Z,16.50
2018-03-24T20:08:56.796Z,15.95
2018-03-24T20:11:23.173Z,17.30
2018-03-24T20:13:49.685Z,16.85
2018-03-24T20:16:17.001Z,16.52
2018-03-24T20:18:43.290Z,16.80
2018-03-24T20:21:09.574Z,18.15
2018-03-24T20:23:35.840Z,17.30
2018-03-24T20:26:02.134Z,16.05
2018-03-24T20:28:28.359Z,16.60
2018-03-24T20:30:54.807Z,16.95
2018-03-24T20:33:21.212Z,17.90
2018-03-24T20:35:47.471Z,14.95
2018-03-24T20:38:13.790Z,17.25
2018-03-24T20:40:40.079Z,16.65
2018-03-24T20:43:06.442Z,18.12
2018-03-24T20:45:33.456Z,16.67
2018-03-24T20:47:59.802Z,16.55
2018-03-24T20:50:26.025Z,18.77
2018-03-24T20:52:52.311Z,16.05
2018-03-24T20:55:18.548Z,15.95
2018-03-24T20:57:44.822Z,15.80
2018-03-24T21:00:11.128Z,17.77
2018-03-24T21:02:37.346Z,16.30
2018-03-24T21:05:03.617Z,17.92
2018-03-24T21:07:29.841Z,17.55
2018-03-24T21:09:56.094Z,18.27
2018-03-24T21:12:22.327Z,18.23
2018-03-24T21:14:48.540Z,19.75
2018-03-24T21:17:14.809Z,17.95
2018-03-24T21:19:41.141Z,18.10
2018-03-24T21:22:07.380Z,18.08
2018-03-24T21:24:33.625Z,16.92
2018-03-24T21:26:59.841Z,20.37
2018-03-24T21:29:26.045Z,18.77
2018-03-24T21:31:53.069Z,19.15
2018-03-24T21:34:19.307Z,18.92
2018-03-24T21:36:45.605Z,19.90
2018-03-24T21:39:11.885Z,19.85
2018-03-24T21:41:38.144Z,18.27
2018-03-24T21:44:05.111Z,17.92
2018-03-24T21:46:31.386Z,18.23
2018-03-24T21:48:57.636Z,18.23
2018-03-24T21:51:23.925Z,21.27
2018-03-24T21:53:50.276Z,18.75
2018-03-24T21:56:16.549Z,17.52
2018-03-24T21:58:42.840Z,17.37
2018-03-24T22:01:09.063Z,20.73
2018-03-24T22:03:35.279Z,17.60
2018-03-24T22:06:01.525Z,18.75
2018-03-24T22:08:28.461Z,18.75
2018-03-24T22:10:54.818Z,18.80
2018-03-24T22:13:22.005Z,20.33
2018-03-24T22:15:48.259Z,17.95
2018-03-24T22:18:14.525Z,17.87
2018-03-24T22:20:40.749Z,18.48
2018-03-24T22:23:14.258Z,20.05
2018-03-24T22:25:40.399Z,18.52
2018-03-24T22:28:06.428Z,19.75
2018-03-24T22:30:32.478Z,18.52
2018-03-24T22:32:58.710Z,19.95
2018-03-24T22:35:24.933Z,19.25
2018-03-24T22:37:51.177Z,18.60
2018-03-24T22:40:17.446Z,20.20
2018-03-24T22:42:44.465Z,18.55
2018-03-24T22:45:10.738Z,21.30
2018-03-24T22:47:36.965Z,18.02
2018-03-24T22:50:03.262Z,19.42
2018-03-24T22:52:29.462Z,18.85
2018-03-24T22:54:55.677Z,18.80
2018-03-24T22:57:21.874Z,17.55
2018-03-24T22:59:48.136Z,19.35
2018-03-24T23:02:14.390Z,19.30
2018-03-24T23:04:40.634Z,20.30
2018-03-24T23:07:06.852Z,19.23
2018-03-24T23:09:33.104Z,19.90
2018-03-24T23:11:59.328Z,21.92
2018-03-24T23:14:26.287Z,18.80
2018-03-24T23:16:53.265Z,19.15
2018-03-24T23:19:19.510Z,19.70
2018-03-24T23:21:45.801Z,17.77
2018-03-24T23:24:12.030Z,20.23
2018-03-24T23:26:38.366Z,19.95
2018-03-24T23:29:04.823Z,19.40
2018-03-24T23:31:31.113Z,21.80
2018-03-24T23:33:57.388Z,17.48
2018-03-24T23:36:24.408Z,18.58
2018-03-24T23:38:51.395Z,19.55
2018-03-24T23:41:17.687Z,18.98
2018-03-24T23:43:43.964Z,18.00
2018-03-24T23:46:10.253Z,18.35
2018-03-24T23:48:37.379Z,17.77
2018-03-24T23:51:03.616Z,17.90
2018-03-24T23:53:29.877Z,18.40
2018-03-24T23:55:56.242Z,20.02
2018-03-24T23:58:23.258Z,20.98
